Bruno, Arkansas
Current Conditions -  °F | °C
As of 2:15 PM on Monday 24 Nov 2014 (Local Time) from KFLP Reporting Station
Clear Clear  
Wind Chill: 55°   Ceiling: Unl
Heat Index: 55°   Visibility: 10mi
Dew Point: 23°   Wind: 23mph
Humidity: 28%   Direction: 280°W
Pressure: 29.84"   Gusts: 30mph
Location:  36.1171°N, 92.7603°W
Report Text: KFLP 242015Z AUTO 28020G26KT 10SM CLR 13/M05 A2984 RMK AO1
Loading
Personal Weather Stations






























Interactive Weather Map New forecast layout! Learn more

10-Day Weather Forecast

Advertisements
Track Severe Weather on mobile